createdAt,value
2019-06-01T00:05:16.570Z,5.73
2019-06-01T00:15:20.164Z,6.23
2019-06-01T00:25:23.736Z,6.50
2019-06-01T00:35:27.317Z,6.80
2019-06-01T00:45:30.930Z,6.62
2019-06-01T00:55:34.551Z,6.50
2019-06-01T01:05:38.870Z,6.40
2019-06-01T01:15:42.629Z,6.30
2019-06-01T01:25:46.389Z,6.55
2019-06-01T01:35:49.969Z,6.00
2019-06-01T01:45:54.736Z,6.20
2019-06-01T01:55:59.080Z,6.17
2019-06-01T02:06:03.372Z,6.35
2019-06-01T02:16:07.035Z,6.40
2019-06-01T02:26:10.585Z,6.42
2019-06-01T02:36:14.165Z,6.72
2019-06-01T02:46:17.747Z,7.08
2019-06-01T02:56:21.324Z,6.90
2019-06-01T03:06:24.895Z,6.62
2019-06-01T03:16:29.657Z,6.90
2019-06-01T03:26:33.428Z,6.95
2019-06-01T03:36:36.995Z,7.30
2019-06-01T03:46:40.569Z,7.15
2019-06-01T03:56:44.163Z,7.45
2019-06-01T04:06:47.736Z,7.00
2019-06-01T04:16:51.289Z,7.55
2019-06-01T04:26:54.905Z,7.67
2019-06-01T04:36:58.513Z,8.28
2019-06-01T04:47:02.101Z,8.03
2019-06-01T04:57:06.765Z,7.80
2019-06-01T05:07:11.202Z,8.45
2019-06-01T05:17:16.551Z,8.15
2019-06-01T05:27:20.332Z,8.28
2019-06-01T05:37:23.918Z,8.25
2019-06-01T05:47:27.535Z,7.95
2019-06-01T05:57:31.092Z,8.05
2019-06-01T06:07:34.665Z,8.20
2019-06-01T06:17:38.271Z,7.97
2019-06-01T06:27:41.865Z,8.60
2019-06-01T06:37:45.448Z,9.10
2019-06-01T06:47:49.037Z,7.67
2019-06-01T06:57:52.632Z,8.73
2019-06-01T07:07:56.177Z,8.10
2019-06-01T07:17:59.749Z,8.45
2019-06-01T07:28:03.312Z,8.63
2019-06-01T07:38:06.927Z,8.60
2019-06-01T07:48:10.493Z,8.73
2019-06-01T07:58:14.114Z,9.40
2019-06-01T08:08:17.717Z,8.60
2019-06-01T08:18:21.934Z,7.85
2019-06-01T08:28:26.503Z,9.05
2019-06-01T08:38:31.675Z,9.18
2019-06-01T08:48:35.876Z,8.88
2019-06-01T08:58:42.387Z,8.70
2019-06-01T09:08:48.579Z,9.03
2019-06-01T09:18:55.369Z,8.73
2019-06-01T09:29:03.125Z,10.58
2019-06-01T09:39:11.474Z,9.28
2019-06-01T09:49:17.385Z,8.90
2019-06-01T09:59:22.543Z,8.53
2019-06-01T10:09:29.476Z,8.60
2019-06-01T10:19:35.185Z,8.55
2019-06-01T10:29:43.080Z,9.28
2019-06-01T10:39:51.020Z,7.67
2019-06-01T10:49:55.772Z,7.83
2019-06-01T10:59:59.876Z,7.70
2019-06-01T11:10:04.862Z,7.47
2019-06-01T11:20:08.812Z,7.67
2019-06-01T11:30:12.838Z,8.30
2019-06-01T11:40:16.532Z,8.15
2019-06-01T11:50:20.980Z,8.53
2019-06-01T12:00:24.548Z,8.63
2019-06-01T12:10:28.157Z,8.58
2019-06-01T12:20:31.705Z,7.90
2019-06-01T12:30:35.359Z,6.83
2019-06-01T12:40:39.154Z,6.53
2019-06-01T12:50:46.695Z,6.60
2019-06-01T13:00:48.363Z,7.10
2019-06-01T13:10:52.015Z,7.28
2019-06-01T13:20:56.051Z,6.65
2019-06-01T13:30:59.881Z,6.70
2019-06-01T13:41:06.023Z,6.28
2019-06-01T13:51:11.233Z,6.42
2019-06-01T14:01:15.069Z,6.93
2019-06-01T14:11:18.615Z,6.75
2019-06-01T14:21:22.299Z,6.90
2019-06-01T14:31:25.868Z,6.53
2019-06-01T14:41:29.475Z,6.60
2019-06-01T14:51:33.345Z,6.85
2019-06-01T15:01:37.001Z,6.08
2019-06-01T15:11:40.568Z,6.37
2019-06-01T15:21:44.149Z,6.33
2019-06-01T15:31:47.759Z,6.70
2019-06-01T15:41:52.890Z,6.60
2019-06-01T15:51:57.738Z,7.30
2019-06-01T16:02:01.472Z,7.12
2019-06-01T16:12:05.790Z,7.17
2019-06-01T16:22:09.329Z,7.14
2019-06-01T16:32:12.916Z,6.95
2019-06-01T16:42:16.508Z,7.15
2019-06-01T16:52:20.097Z,7.07
2019-06-01T17:02:23.700Z,7.83
2019-06-01T17:12:27.295Z,7.30
2019-06-01T17:22:30.910Z,8.08
2019-06-01T17:32:34.505Z,7.83
2019-06-01T17:42:38.602Z,8.37
2019-06-01T17:52:42.477Z,7.75
2019-06-01T18:02:46.659Z,8.15
2019-06-01T18:12:50.711Z,7.78
2019-06-01T18:22:56.608Z,7.37
2019-06-01T18:33:00.948Z,9.07
2019-06-01T18:43:12.071Z,8.55
2019-06-01T18:53:17.024Z,9.33
2019-06-01T19:03:21.072Z,11.73
2019-06-01T19:13:25.889Z,10.82
2019-06-01T19:23:30.173Z,13.03
2019-06-01T19:33:34.369Z,10.68
2019-06-01T19:43:38.758Z,10.82
2019-06-01T19:53:42.983Z,11.48
2019-06-01T20:03:47.079Z,10.25
2019-06-01T20:13:51.435Z,42.20
2019-06-01T20:23:56.175Z,132.18
2019-06-01T20:34:00.775Z,117.03
2019-06-01T20:44:06.184Z,89.30
2019-06-01T20:54:12.899Z,71.16
2019-06-01T21:04:18.035Z,55.77
2019-06-01T21:14:21.759Z,46.50
2019-06-01T21:24:25.500Z,34.80
2019-06-01T21:34:29.055Z,35.73
2019-06-01T21:44:32.693Z,33.15
2019-06-01T21:54:36.337Z,28.23
2019-06-01T22:04:39.919Z,25.02
2019-06-01T22:14:43.869Z,21.55
2019-06-01T22:24:47.687Z,21.00
2019-06-01T22:34:51.379Z,19.17
2019-06-01T22:44:55.348Z,19.20
2019-06-01T22:54:58.976Z,16.50
2019-06-01T23:05:02.632Z,16.02
2019-06-01T23:15:07.325Z,16.23
2019-06-01T23:25:10.915Z,16.12
2019-06-01T23:35:14.540Z,14.97
2019-06-01T23:45:18.089Z,14.67
2019-06-01T23:55:21.667Z,14.53
